createdAt,value
2022-09-28T00:00:01.105Z,3.50
2022-09-28T00:00:33.095Z,4.93
2022-09-28T00:01:15.735Z,4.95
2022-09-28T00:01:47.428Z,4.90
2022-09-28T00:02:19.352Z,3.50
2022-09-28T00:02:51.279Z,3.95
2022-09-28T00:03:22.931Z,4.93
2022-09-28T00:03:59.855Z,4.00
2022-09-28T00:04:33.207Z,4.05
2022-09-28T00:05:06.201Z,3.90
2022-09-28T00:05:37.701Z,4.75
2022-09-28T00:06:12.405Z,3.38
2022-09-28T00:06:44.196Z,4.55
2022-09-28T00:07:15.696Z,3.67
2022-09-28T00:07:47.207Z,3.63
2022-09-28T00:08:18.710Z,3.75
2022-09-28T00:08:50.421Z,3.50
2022-09-28T00:09:21.937Z,3.70
2022-09-28T00:09:54.062Z,3.40
2022-09-28T00:10:25.586Z,3.47
2022-09-28T00:10:57.644Z,3.53
2022-09-28T00:11:29.287Z,3.58
2022-09-28T00:12:01.117Z,4.20
2022-09-28T00:12:33.720Z,3.25
2022-09-28T00:13:06.873Z,3.60
2022-09-28T00:13:38.816Z,4.32
2022-09-28T00:14:11.036Z,3.80
2022-09-28T00:14:44.641Z,3.72
2022-09-28T00:15:16.589Z,4.03
2022-09-28T00:15:48.128Z,3.38
2022-09-28T00:16:22.466Z,3.40
2022-09-28T00:16:54.101Z,3.83
2022-09-28T00:17:26.527Z,3.70
2022-09-28T00:17:58.083Z,3.75
2022-09-28T00:18:30.062Z,4.05
2022-09-28T00:19:03.062Z,3.92
2022-09-28T00:19:34.701Z,3.85
2022-09-28T00:20:06.489Z,4.70
2022-09-28T00:20:38.014Z,3.72
2022-09-28T00:21:12.930Z,3.13
2022-09-28T00:21:44.456Z,3.78
2022-09-28T00:22:15.966Z,3.63
2022-09-28T00:22:47.475Z,3.58
2022-09-28T00:23:18.984Z,3.67
2022-09-28T00:24:15.349Z,4.53
2022-09-28T00:24:47.437Z,3.58
2022-09-28T00:25:21.961Z,4.50
2022-09-28T00:25:53.546Z,3.50
2022-09-28T00:26:26.248Z,5.28
2022-09-28T00:27:01.443Z,3.38
2022-09-28T00:27:32.979Z,4.45
2022-09-28T00:28:05.196Z,3.75
2022-09-28T00:28:36.685Z,6.10
2022-09-28T00:29:20.870Z,3.40
2022-09-28T00:29:52.362Z,3.20
2022-09-28T00:30:23.879Z,4.28
2022-09-28T00:30:56.394Z,3.17
2022-09-28T00:31:31.651Z,6.18
2022-09-28T00:32:10.738Z,4.10
2022-09-28T00:32:42.396Z,3.33
2022-09-28T00:33:13.902Z,4.10
2022-09-28T00:33:45.675Z,4.05
2022-09-28T00:34:17.286Z,4.10
2022-09-28T00:34:49.301Z,4.10
2022-09-28T00:35:20.822Z,4.07
2022-09-28T00:35:58.935Z,3.25
2022-09-28T00:36:32.157Z,3.75
2022-09-28T00:37:05.609Z,4.07
2022-09-28T00:37:37.106Z,3.78
2022-09-28T00:38:09.449Z,3.50
2022-09-28T00:38:40.983Z,3.17
2022-09-28T00:39:14.599Z,3.20
2022-09-28T00:39:47.950Z,3.85
2022-09-28T00:40:19.575Z,4.03
2022-09-28T00:40:51.129Z,3.67
2022-09-28T00:41:27.595Z,5.15
2022-09-28T00:41:59.644Z,4.30
2022-09-28T00:42:31.153Z,4.10
2022-09-28T00:43:18.509Z,3.97
2022-09-28T00:43:50.237Z,4.25
2022-09-28T00:44:24.488Z,3.15
2022-09-28T00:44:59.579Z,4.55
2022-09-28T00:45:31.475Z,3.63
2022-09-28T00:46:09.409Z,4.18
2022-09-28T00:46:41.549Z,3.30
2022-09-28T00:47:49.507Z,4.50
2022-09-28T00:48:21.094Z,4.10
2022-09-28T00:49:03.114Z,3.50
2022-09-28T00:49:45.253Z,3.42
2022-09-28T00:50:22.689Z,3.38
2022-09-28T00:50:56.930Z,3.60
2022-09-28T00:51:29.916Z,4.20
2022-09-28T00:52:02.990Z,3.55
2022-09-28T00:52:49.695Z,3.47
2022-09-28T00:53:29.756Z,3.50
2022-09-28T00:54:03.399Z,4.28
2022-09-28T00:54:35.784Z,3.10
2022-09-28T00:55:11.624Z,3.50
2022-09-28T00:55:48.406Z,3.75
2022-09-28T00:56:25.140Z,3.90
2022-09-28T00:56:57.852Z,4.65
2022-09-28T00:57:30.657Z,4.47
2022-09-28T00:58:05.414Z,4.45
2022-09-28T00:58:42.568Z,3.58
2022-09-28T00:59:15.633Z,4.35
2022-09-28T00:59:47.403Z,3.85
2022-09-28T01:00:19.446Z,3.97
2022-09-28T01:00:51.107Z,4.07
2022-09-28T01:01:22.809Z,3.85
2022-09-28T01:01:54.592Z,3.58
2022-09-28T01:02:26.493Z,3.50
2022-09-28T01:02:59.652Z,3.72
2022-09-28T01:03:33.309Z,4.30
2022-09-28T01:04:06.008Z,3.95
2022-09-28T01:04:38.757Z,4.03
2022-09-28T01:05:11.719Z,3.40
2022-09-28T01:05:44.987Z,3.92
2022-09-28T01:06:22.962Z,4.63
2022-09-28T01:06:55.955Z,4.00
2022-09-28T01:07:27.670Z,3.97
2022-09-28T01:07:59.525Z,4.25
2022-09-28T01:08:33.197Z,5.00
2022-09-28T01:09:09.854Z,3.70
2022-09-28T01:09:41.772Z,5.45
2022-09-28T01:10:14.594Z,4.40
2022-09-28T01:10:46.191Z,5.38
2022-09-28T01:11:18.946Z,4.65
2022-09-28T01:11:50.495Z,3.53
2022-09-28T01:12:22.056Z,4.03
2022-09-28T01:12:55.588Z,4.45
2022-09-28T01:13:28.040Z,4.32
2022-09-28T01:14:00.104Z,4.55
2022-09-28T01:14:31.688Z,4.55
2022-09-28T01:15:04.806Z,5.00
2022-09-28T01:16:00.177Z,5.13
2022-09-28T01:16:57.640Z,4.80
2022-09-28T01:17:58.612Z,5.15
2022-09-28T01:18:47.448Z,3.92
2022-09-28T01:19:42.242Z,4.53
2022-09-28T01:20:35.415Z,6.07
2022-09-28T01:21:21.196Z,6.15
2022-09-28T01:22:04.280Z,4.65
2022-09-28T01:22:54.454Z,4.35
2022-09-28T01:24:00.276Z,4.65
2022-09-28T01:24:48.262Z,4.53
2022-09-28T01:25:27.936Z,6.15
2022-09-28T01:26:30.566Z,4.95
2022-09-28T01:27:13.983Z,5.18
2022-09-28T01:27:51.596Z,5.93
2022-09-28T01:28:28.917Z,6.00
2022-09-28T01:29:28.831Z,5.38
2022-09-28T01:30:07.872Z,5.47
2022-09-28T01:30:46.011Z,4.57
2022-09-28T01:31:18.902Z,6.68
2022-09-28T01:31:56.716Z,4.63
2022-09-28T01:32:55.423Z,7.07
2022-09-28T01:33:48.810Z,4.75
2022-09-28T01:34:28.738Z,5.85
2022-09-28T01:35:07.292Z,5.60
2022-09-28T01:35:47.676Z,5.38
2022-09-28T01:36:38.785Z,4.50
2022-09-28T01:37:14.012Z,4.07
2022-09-28T01:38:09.462Z,5.65
2022-09-28T01:38:46.452Z,3.85
2022-09-28T01:39:33.992Z,4.88
2022-09-28T01:40:09.415Z,5.85
2022-09-28T01:40:41.943Z,4.28
2022-09-28T01:41:14.191Z,5.50
2022-09-28T01:41:51.282Z,5.00
2022-09-28T01:42:28.588Z,4.38
2022-09-28T01:43:08.650Z,5.63
2022-09-28T01:43:44.113Z,4.60
2022-09-28T01:44:19.798Z,5.25
2022-09-28T01:44:55.554Z,5.78
2022-09-28T01:45:32.551Z,4.78
2022-09-28T01:46:12.202Z,5.47
2022-09-28T01:46:48.228Z,6.78
2022-09-28T01:47:22.859Z,5.28
2022-09-28T01:48:00.035Z,4.90
2022-09-28T01:48:37.862Z,5.95
2022-09-28T01:49:14.827Z,5.63
2022-09-28T01:49:52.166Z,6.30
2022-09-28T01:50:26.354Z,4.10
2022-09-28T01:51:02.005Z,6.00
2022-09-28T01:51:51.088Z,6.85
2022-09-28T01:52:33.688Z,4.85
2022-09-28T01:53:20.538Z,5.18
2022-09-28T01:53:56.036Z,6.97
2022-09-28T01:54:36.910Z,4.60
2022-09-28T01:55:18.507Z,4.25
2022-09-28T01:55:57.165Z,6.18
2022-09-28T01:56:38.304Z,4.57
2022-09-28T01:57:17.546Z,4.50
2022-09-28T01:58:00.955Z,3.92
2022-09-28T01:58:56.767Z,5.25
2022-09-28T01:59:32.197Z,4.13
2022-09-28T02:00:12.610Z,4.10
2022-09-28T02:01:29.818Z,3.83
2022-09-28T02:02:10.156Z,4.40
2022-09-28T02:02:54.620Z,4.18
2022-09-28T02:03:34.805Z,3.90
2022-09-28T02:04:18.756Z,4.90
2022-09-28T02:04:52.342Z,4.57
2022-09-28T02:05:30.035Z,4.55
2022-09-28T02:06:08.290Z,4.15
2022-09-28T02:07:27.028Z,3.97
2022-09-28T02:08:07.283Z,4.47
2022-09-28T02:09:02.246Z,3.97
2022-09-28T02:09:45.926Z,5.60
2022-09-28T02:10:22.522Z,4.32
2022-09-28T02:11:12.732Z,3.95
2022-09-28T02:11:49.418Z,5.20
2022-09-28T02:12:44.541Z,4.32
2022-09-28T02:13:25.060Z,3.78
2022-09-28T02:14:03.064Z,4.38
2022-09-28T02:14:36.457Z,4.90
2022-09-28T02:15:22.045Z,4.60
2022-09-28T02:16:07.096Z,3.90
2022-09-28T02:16:47.769Z,4.18
2022-09-28T02:17:19.746Z,3.90
2022-09-28T02:17:51.869Z,3.80
2022-09-28T02:18:23.403Z,3.55
2022-09-28T02:18:55.014Z,4.18
2022-09-28T02:19:28.492Z,4.35
2022-09-28T02:20:00.143Z,4.25
2022-09-28T02:20:34.374Z,5.07
2022-09-28T02:21:38.743Z,4.35
2022-09-28T02:22:28.532Z,4.40
2022-09-28T02:23:02.982Z,3.80
2022-09-28T02:23:39.956Z,3.58
2022-09-28T02:24:24.572Z,4.15
2022-09-28T02:25:01.330Z,6.50
2022-09-28T02:25:41.656Z,3.85
2022-09-28T02:26:17.061Z,4.13
2022-09-28T02:26:50.677Z,3.38
2022-09-28T02:27:31.189Z,3.50
2022-09-28T02:28:06.060Z,4.05
2022-09-28T02:28:37.609Z,3.40
2022-09-28T02:29:09.152Z,3.40
2022-09-28T02:29:40.666Z,3.97
2022-09-28T02:30:12.475Z,3.40
2022-09-28T02:30:44.875Z,5.35
2022-09-28T02:31:16.533Z,3.10
2022-09-28T02:31:48.091Z,4.20
2022-09-28T02:32:20.297Z,3.20
2022-09-28T02:32:56.822Z,4.03
2022-09-28T02:33:36.797Z,3.20
2022-09-28T02:34:09.523Z,3.53
2022-09-28T02:34:41.057Z,3.20
2022-09-28T02:35:15.530Z,3.30
2022-09-28T02:35:47.470Z,3.42
2022-09-28T02:36:19.114Z,4.65
2022-09-28T02:36:50.672Z,3.45
2022-09-28T02:37:22.366Z,3.28
2022-09-28T02:37:55.088Z,3.10
2022-09-28T02:38:26.870Z,3.35
2022-09-28T02:38:58.623Z,3.50
2022-09-28T02:39:30.162Z,3.63
2022-09-28T02:40:02.092Z,3.75
2022-09-28T02:40:36.185Z,3.00
2022-09-28T02:41:35.193Z,4.50
2022-09-28T02:42:19.935Z,4.75
2022-09-28T02:43:18.593Z,3.20
2022-09-28T02:44:06.118Z,3.70
2022-09-28T02:44:48.966Z,4.65
2022-09-28T02:45:25.849Z,3.67
2022-09-28T02:46:32.683Z,3.35
2022-09-28T02:47:15.775Z,3.50
2022-09-28T02:48:06.026Z,2.95
2022-09-28T02:49:20.190Z,3.10
2022-09-28T02:49:52.203Z,3.15
2022-09-28T02:50:51.493Z,3.85
2022-09-28T02:51:48.939Z,3.58
2022-09-28T02:52:55.770Z,3.20
2022-09-28T02:53:39.290Z,3.63
2022-09-28T02:54:27.761Z,3.10
2022-09-28T02:55:33.160Z,4.18
2022-09-28T02:56:32.508Z,3.33
2022-09-28T02:57:07.047Z,3.97
2022-09-28T02:57:38.532Z,2.88
2022-09-28T02:58:36.283Z,3.92
2022-09-28T02:59:19.956Z,3.20
2022-09-28T03:00:12.051Z,3.10
2022-09-28T03:01:24.399Z,3.28
2022-09-28T03:02:14.180Z,3.10
2022-09-28T03:03:13.506Z,4.07
2022-09-28T03:03:57.693Z,3.40
2022-09-28T03:04:35.043Z,3.97
2022-09-28T03:05:14.398Z,3.60
2022-09-28T03:05:51.769Z,3.53
2022-09-28T03:06:31.940Z,4.78
2022-09-28T03:07:14.608Z,4.35
2022-09-28T03:08:20.288Z,3.70
2022-09-28T03:09:03.183Z,3.35
2022-09-28T03:09:39.220Z,4.47
2022-09-28T03:10:18.129Z,3.67
2022-09-28T03:11:02.501Z,3.20
2022-09-28T03:11:39.318Z,3.70
2022-09-28T03:12:14.457Z,4.57
2022-09-28T03:12:48.867Z,3.53
2022-09-28T03:13:20.859Z,3.30
2022-09-28T03:13:53.296Z,3.63
2022-09-28T03:14:25.164Z,3.53
2022-09-28T03:15:20.172Z,3.83
2022-09-28T03:15:51.802Z,4.50
2022-09-28T03:16:23.583Z,6.35
2022-09-28T03:16:55.162Z,4.85
2022-09-28T03:17:26.655Z,3.88
2022-09-28T03:17:58.725Z,4.05
2022-09-28T03:18:32.105Z,3.90
2022-09-28T03:19:03.604Z,3.60
2022-09-28T03:19:36.743Z,3.80
2022-09-28T03:20:10.034Z,4.03
2022-09-28T03:20:41.549Z,3.80
2022-09-28T03:21:15.010Z,5.95
2022-09-28T03:21:46.512Z,4.55
2022-09-28T03:22:18.021Z,4.97
2022-09-28T03:23:12.294Z,3.83
2022-09-28T03:23:42.210Z,3.55
2022-09-28T03:24:13.707Z,4.15
2022-09-28T03:24:45.186Z,4.93
2022-09-28T03:25:17.029Z,3.97
2022-09-28T03:25:48.520Z,3.83
2022-09-28T03:26:20.170Z,4.73
2022-09-28T03:26:51.765Z,4.00
2022-09-28T03:27:23.289Z,4.55
2022-09-28T03:27:54.775Z,3.72
2022-09-28T03:28:27.060Z,3.58
2022-09-28T03:28:58.555Z,4.50
2022-09-28T03:29:32.952Z,4.70
2022-09-28T03:30:05.171Z,4.53
2022-09-28T03:30:36.660Z,3.78
2022-09-28T03:31:08.484Z,4.28
2022-09-28T03:31:40.187Z,3.90
2022-09-28T03:32:11.722Z,3.90
2022-09-28T03:32:43.296Z,4.38
2022-09-28T03:33:14.788Z,3.80
2022-09-28T03:33:46.515Z,4.10
2022-09-28T03:34:18.044Z,3.83
2022-09-28T03:34:49.715Z,4.15
2022-09-28T03:35:21.198Z,3.90
2022-09-28T03:35:53.374Z,4.25
2022-09-28T03:36:24.885Z,4.10
2022-09-28T03:36:56.406Z,3.83
2022-09-28T03:37:28.808Z,4.00
2022-09-28T03:38:00.336Z,4.55
2022-09-28T03:38:31.969Z,4.18
2022-09-28T03:39:04.411Z,4.82
2022-09-28T03:39:36.328Z,3.78
2022-09-28T03:40:08.177Z,4.32
2022-09-28T03:40:39.987Z,4.00
2022-09-28T03:41:11.598Z,4.47
2022-09-28T03:41:43.310Z,3.58
2022-09-28T03:42:14.890Z,4.20
2022-09-28T03:42:46.736Z,4.88
2022-09-28T03:43:18.455Z,4.32
2022-09-28T03:43:50.001Z,5.05
2022-09-28T03:44:21.509Z,5.68
2022-09-28T03:44:52.998Z,5.13
2022-09-28T03:45:24.579Z,5.70
2022-09-28T03:45:58.352Z,4.32
2022-09-28T03:46:29.930Z,4.60
2022-09-28T03:47:01.439Z,5.30
2022-09-28T03:47:32.951Z,5.60
2022-09-28T03:48:04.569Z,3.75
2022-09-28T03:48:36.496Z,5.32
2022-09-28T03:49:09.913Z,5.50
2022-09-28T03:49:41.795Z,4.95
2022-09-28T03:50:14.252Z,5.68
2022-09-28T03:50:45.817Z,5.88
2022-09-28T03:51:17.486Z,4.07
2022-09-28T03:51:48.978Z,5.47
2022-09-28T03:52:20.490Z,5.15
2022-09-28T03:52:51.983Z,5.23
2022-09-28T03:53:23.930Z,4.05
2022-09-28T03:53:55.487Z,4.43
2022-09-28T03:54:26.985Z,4.53
2022-09-28T03:54:58.710Z,4.72
2022-09-28T03:55:30.521Z,4.22
2022-09-28T03:56:07.369Z,4.45
2022-09-28T03:56:38.962Z,5.00
2022-09-28T03:57:10.463Z,4.53
2022-09-28T03:57:41.961Z,4.78
2022-09-28T03:58:13.497Z,5.83
2022-09-28T03:58:44.983Z,4.93
2022-09-28T03:59:16.654Z,4.30
2022-09-28T03:59:48.200Z,4.78
2022-09-28T04:00:19.895Z,4.63
2022-09-28T04:00:51.709Z,4.80
2022-09-28T04:01:23.307Z,5.93
2022-09-28T04:01:55.003Z,5.32
2022-09-28T04:02:26.652Z,4.40
2022-09-28T04:02:58.181Z,5.47
2022-09-28T04:03:29.760Z,4.55
2022-09-28T04:04:01.543Z,5.65
2022-09-28T04:04:33.065Z,4.90
2022-09-28T04:05:04.802Z,4.38
2022-09-28T04:05:36.388Z,4.60
2022-09-28T04:06:07.920Z,4.40
2022-09-28T04:06:39.778Z,5.25
2022-09-28T04:07:11.278Z,4.10
2022-09-28T04:07:42.766Z,4.10
2022-09-28T04:08:14.283Z,4.93
2022-09-28T04:08:45.812Z,4.27
2022-09-28T04:09:17.397Z,4.65
2022-09-28T04:09:48.937Z,5.00
2022-09-28T04:10:20.426Z,3.78
2022-09-28T04:10:52.272Z,4.60
2022-09-28T04:11:24.259Z,4.47
2022-09-28T04:12:03.985Z,4.45
2022-09-28T04:12:35.912Z,4.75
2022-09-28T04:13:07.401Z,4.38
2022-09-28T04:13:39.312Z,4.32
2022-09-28T04:14:10.810Z,4.75
2022-09-28T04:14:42.306Z,4.35
2022-09-28T04:15:13.945Z,4.20
2022-09-28T04:15:53.397Z,4.63
2022-09-28T04:16:25.082Z,3.95
2022-09-28T04:16:56.633Z,4.75
2022-09-28T04:17:28.120Z,4.05
2022-09-28T04:17:59.621Z,4.50
2022-09-28T04:18:32.633Z,4.82
2022-09-28T04:19:04.587Z,4.15
2022-09-28T04:19:36.118Z,4.43
2022-09-28T04:20:08.565Z,4.10
2022-09-28T04:20:41.521Z,4.63
2022-09-28T04:21:19.422Z,5.53
2022-09-28T04:21:51.888Z,4.20
2022-09-28T04:22:23.410Z,4.22
2022-09-28T04:22:55.455Z,3.80
2022-09-28T04:23:28.144Z,5.50
2022-09-28T04:23:59.650Z,4.65
2022-09-28T04:24:31.215Z,5.63
2022-09-28T04:25:02.747Z,5.25
2022-09-28T04:25:34.263Z,4.13
2022-09-28T04:26:08.352Z,6.00
2022-09-28T04:26:39.938Z,5.68
2022-09-28T04:27:30.072Z,5.32
2022-09-28T04:28:20.285Z,4.70
2022-09-28T04:29:10.539Z,4.40
2022-09-28T04:29:44.121Z,4.30
2022-09-28T04:30:16.413Z,6.03
2022-09-28T04:30:47.928Z,5.15
2022-09-28T04:31:24.450Z,4.95
2022-09-28T04:31:56.256Z,4.57
2022-09-28T04:32:27.846Z,6.32
2022-09-28T04:32:59.333Z,7.88
2022-09-28T04:33:31.665Z,4.63
2022-09-28T04:34:03.157Z,4.68
2022-09-28T04:34:37.235Z,5.80
2022-09-28T04:35:11.960Z,5.68
2022-09-28T04:35:43.539Z,5.07
2022-09-28T04:36:15.120Z,4.45
2022-09-28T04:36:47.709Z,4.93
2022-09-28T04:37:19.221Z,5.18
2022-09-28T04:37:50.745Z,4.93
2022-09-28T04:38:35.849Z,5.18
2022-09-28T04:39:15.114Z,4.53
2022-09-28T04:39:48.552Z,4.55
2022-09-28T04:40:20.328Z,6.10
2022-09-28T04:40:51.950Z,6.10
2022-09-28T04:41:23.658Z,4.25
2022-09-28T04:41:55.151Z,4.60
2022-09-28T04:42:26.643Z,5.32
2022-09-28T04:42:58.225Z,4.70
2022-09-28T04:43:29.743Z,5.13
2022-09-28T04:44:01.625Z,5.45
2022-09-28T04:44:33.136Z,5.68
2022-09-28T04:45:05.245Z,12.68
2022-09-28T04:45:36.776Z,8.68
2022-09-28T04:46:10.640Z,4.63
2022-09-28T04:46:42.219Z,5.35
2022-09-28T04:47:13.721Z,5.55
2022-09-28T04:47:45.274Z,4.55
2022-09-28T04:48:17.376Z,4.40
2022-09-28T04:48:48.903Z,5.30
2022-09-28T04:49:20.409Z,5.53
2022-09-28T04:49:51.970Z,5.20
2022-09-28T04:50:23.472Z,4.03
2022-09-28T04:50:56.439Z,6.00
2022-09-28T04:51:31.025Z,4.53
2022-09-28T04:52:02.589Z,4.90
2022-09-28T04:52:36.526Z,6.10
2022-09-28T04:53:08.050Z,5.17
2022-09-28T04:53:39.709Z,5.22
2022-09-28T04:54:11.222Z,4.68
2022-09-28T04:54:42.775Z,6.05
2022-09-28T04:55:14.628Z,4.85
2022-09-28T04:55:55.606Z,5.85
2022-09-28T04:56:27.121Z,6.53
2022-09-28T04:56:58.914Z,5.50
2022-09-28T04:57:30.405Z,6.38
2022-09-28T04:58:04.394Z,5.85
2022-09-28T04:58:36.159Z,4.80
2022-09-28T04:59:07.760Z,5.00
2022-09-28T04:59:39.272Z,5.45
2022-09-28T05:00:12.133Z,5.20
2022-09-28T05:00:43.636Z,4.63
2022-09-28T05:01:18.272Z,6.25
2022-09-28T05:01:49.879Z,5.20
2022-09-28T05:02:21.539Z,4.97
2022-09-28T05:02:53.998Z,5.32
2022-09-28T05:03:26.313Z,5.30
2022-09-28T05:03:57.835Z,4.30
2022-09-28T05:04:30.669Z,5.03
2022-09-28T05:05:02.214Z,5.57
2022-09-28T05:05:33.707Z,4.88
2022-09-28T05:06:06.955Z,6.22
2022-09-28T05:06:38.449Z,6.40
2022-09-28T05:07:10.081Z,5.22
2022-09-28T05:07:41.954Z,7.07
2022-09-28T05:08:13.705Z,5.75
2022-09-28T05:08:46.862Z,6.88
2022-09-28T05:09:18.571Z,6.45
2022-09-28T05:09:50.422Z,4.85
2022-09-28T05:10:21.949Z,7.13
2022-09-28T05:11:06.105Z,5.38
2022-09-28T05:11:37.626Z,6.70
2022-09-28T05:12:09.715Z,5.70
2022-09-28T05:12:41.207Z,6.90
2022-09-28T05:13:14.049Z,6.15
2022-09-28T05:13:45.889Z,6.88
2022-09-28T05:14:17.450Z,8.50
2022-09-28T05:14:49.037Z,5.73
2022-09-28T05:15:20.521Z,5.63
2022-09-28T05:15:58.107Z,5.80
2022-09-28T05:16:33.774Z,7.00
2022-09-28T05:17:05.724Z,6.22
2022-09-28T05:17:37.223Z,6.15
2022-09-28T05:18:09.010Z,8.25
2022-09-28T05:18:40.613Z,5.40
2022-09-28T05:19:12.511Z,5.15
2022-09-28T05:19:44.043Z,6.53
2022-09-28T05:20:15.629Z,6.38
2022-09-28T05:20:47.305Z,5.40
2022-09-28T05:21:20.097Z,6.97
2022-09-28T05:21:51.614Z,7.18
2022-09-28T05:22:23.193Z,8.30
2022-09-28T05:22:54.754Z,6.65
2022-09-28T05:23:26.264Z,4.82
2022-09-28T05:23:58.341Z,6.38
2022-09-28T05:24:30.601Z,9.05
2022-09-28T05:25:02.934Z,6.10
2022-09-28T05:25:34.438Z,7.90
2022-09-28T05:26:06.334Z,7.53
2022-09-28T05:26:37.946Z,8.63
2022-09-28T05:27:09.465Z,9.68
2022-09-28T05:27:40.944Z,7.78
2022-09-28T05:28:12.609Z,8.00
2022-09-28T05:28:44.710Z,7.07
2022-09-28T05:29:16.248Z,6.43
2022-09-28T05:29:47.911Z,5.55
2022-09-28T05:30:19.477Z,6.60
2022-09-28T05:30:51.017Z,5.63
2022-09-28T05:31:22.561Z,6.65
2022-09-28T05:31:54.156Z,6.85
2022-09-28T05:32:25.732Z,8.77
2022-09-28T05:32:57.298Z,9.20
2022-09-28T05:33:29.172Z,7.72
2022-09-28T05:34:00.658Z,6.35
2022-09-28T05:34:32.179Z,8.40
2022-09-28T05:35:06.270Z,8.48
2022-09-28T05:35:37.801Z,6.85
2022-09-28T05:36:12.913Z,6.53
2022-09-28T05:36:45.736Z,8.43
2022-09-28T05:37:17.267Z,8.05
2022-09-28T05:37:49.438Z,9.07
2022-09-28T05:38:20.986Z,6.50
2022-09-28T05:38:52.526Z,9.77
2022-09-28T05:39:24.028Z,12.13
2022-09-28T05:39:55.526Z,6.95
2022-09-28T05:40:27.067Z,7.93
2022-09-28T05:40:59.720Z,6.47
2022-09-28T05:41:33.638Z,5.57
2022-09-28T05:42:05.199Z,8.07
2022-09-28T05:42:36.748Z,6.70
2022-09-28T05:43:08.245Z,9.05
2022-09-28T05:43:39.752Z,7.32
2022-09-28T05:44:11.339Z,7.35
2022-09-28T05:44:43.166Z,7.63
2022-09-28T05:45:15.150Z,7.07
2022-09-28T05:45:47.835Z,7.25
2022-09-28T05:46:23.707Z,7.05
2022-09-28T05:46:55.429Z,7.20
2022-09-28T05:47:27.386Z,6.63
2022-09-28T05:47:58.933Z,9.05
2022-09-28T05:48:30.576Z,8.30
2022-09-28T05:49:02.253Z,9.50
2022-09-28T05:49:33.746Z,7.82
2022-09-28T05:50:06.830Z,6.82
2022-09-28T05:50:38.332Z,8.30
2022-09-28T05:51:10.342Z,7.95
2022-09-28T05:51:41.848Z,6.72
2022-09-28T05:52:14.139Z,6.05
2022-09-28T05:52:45.832Z,7.32
2022-09-28T05:53:17.342Z,6.47
2022-09-28T05:53:48.869Z,6.72
2022-09-28T05:54:20.474Z,6.07
2022-09-28T05:54:52.118Z,7.82
2022-09-28T05:55:23.700Z,6.82
2022-09-28T05:55:59.371Z,6.30
2022-09-28T05:56:31.687Z,7.55
2022-09-28T05:57:05.952Z,7.53
2022-09-28T05:57:37.514Z,7.03
2022-09-28T05:58:09.212Z,5.95
2022-09-28T05:58:40.771Z,5.88
2022-09-28T05:59:13.426Z,7.03
2022-09-28T05:59:45.038Z,4.93
2022-09-28T06:00:16.633Z,6.25
2022-09-28T06:00:57.584Z,7.78
2022-09-28T06:01:29.211Z,7.10
2022-09-28T06:02:00.994Z,6.15
2022-09-28T06:02:32.574Z,5.38
2022-09-28T06:03:09.220Z,7.07
2022-09-28T06:03:41.098Z,7.72
2022-09-28T06:04:14.617Z,7.00
2022-09-28T06:04:48.268Z,5.72
2022-09-28T06:05:19.766Z,7.20
2022-09-28T06:05:51.725Z,5.00
2022-09-28T06:06:23.249Z,5.30
2022-09-28T06:06:55.221Z,7.93
2022-09-28T06:07:26.814Z,6.90
2022-09-28T06:07:59.453Z,6.93
2022-09-28T06:08:32.801Z,5.38
2022-09-28T06:09:04.497Z,8.82
2022-09-28T06:09:36.073Z,7.30
2022-09-28T06:10:07.935Z,9.05
2022-09-28T06:10:40.916Z,7.78
2022-09-28T06:11:12.588Z,4.85
2022-09-28T06:11:44.186Z,5.55
2022-09-28T06:12:16.096Z,5.03
2022-09-28T06:12:48.648Z,4.88
2022-09-28T06:13:20.713Z,3.80
2022-09-28T06:13:57.902Z,5.87
2022-09-28T06:14:29.406Z,5.38
2022-09-28T06:15:01.309Z,4.10
2022-09-28T06:15:35.245Z,4.18
2022-09-28T06:16:11.457Z,6.60
2022-09-28T06:16:44.040Z,5.65
2022-09-28T06:17:15.741Z,5.88
2022-09-28T06:17:47.593Z,6.60
2022-09-28T06:18:19.323Z,5.07
2022-09-28T06:18:50.836Z,4.22
2022-09-28T06:19:22.333Z,4.37
2022-09-28T06:19:53.868Z,3.80
2022-09-28T06:20:27.445Z,5.00
2022-09-28T06:20:59.153Z,4.78
2022-09-28T06:21:30.648Z,4.25
2022-09-28T06:22:02.300Z,6.03
2022-09-28T06:22:33.808Z,6.97
2022-09-28T06:23:05.336Z,4.95
2022-09-28T06:23:36.873Z,5.43
2022-09-28T06:24:08.571Z,4.53
2022-09-28T06:24:40.139Z,4.10
2022-09-28T06:25:11.631Z,5.55
2022-09-28T06:25:43.604Z,3.97
2022-09-28T06:26:15.149Z,4.07
2022-09-28T06:26:46.641Z,4.25
2022-09-28T06:27:18.155Z,3.50
2022-09-28T06:27:59.554Z,3.97
2022-09-28T06:28:31.117Z,4.07
2022-09-28T06:29:03.532Z,4.68
2022-09-28T06:29:35.045Z,4.25
2022-09-28T06:30:07.029Z,3.93
2022-09-28T06:30:39.144Z,3.85
2022-09-28T06:31:10.923Z,6.60
2022-09-28T06:31:42.589Z,4.22
2022-09-28T06:32:14.123Z,3.90
2022-09-28T06:32:45.640Z,4.68
2022-09-28T06:33:17.157Z,4.18
2022-09-28T06:33:51.925Z,4.00
2022-09-28T06:34:24.786Z,3.83
2022-09-28T06:34:57.012Z,4.90
2022-09-28T06:35:30.618Z,4.50
2022-09-28T06:36:02.111Z,5.13
2022-09-28T06:36:33.864Z,3.70
2022-09-28T06:37:05.373Z,4.65
2022-09-28T06:37:36.929Z,4.65
2022-09-28T06:38:08.988Z,4.72
2022-09-28T06:38:40.472Z,5.35
2022-09-28T06:39:11.960Z,7.57
2022-09-28T06:39:43.458Z,9.88
2022-09-28T06:40:15.546Z,8.70
2022-09-28T06:40:47.088Z,9.27
2022-09-28T06:41:18.615Z,7.85
2022-09-28T06:41:50.094Z,6.38
2022-09-28T06:42:22.067Z,7.40
2022-09-28T06:42:58.608Z,6.82
2022-09-28T06:43:34.258Z,6.53
2022-09-28T06:44:06.034Z,7.75
2022-09-28T06:44:37.640Z,8.65
2022-09-28T06:45:10.706Z,7.07
2022-09-28T06:45:43.267Z,6.43
2022-09-28T06:46:15.318Z,5.90
2022-09-28T06:46:46.840Z,8.10
2022-09-28T06:47:18.472Z,8.43
2022-09-28T06:47:57.457Z,7.70
2022-09-28T06:48:28.964Z,5.53
2022-09-28T06:49:00.505Z,5.55
2022-09-28T06:49:32.001Z,5.47
2022-09-28T06:50:11.025Z,5.85
2022-09-28T06:50:42.954Z,6.10
2022-09-28T06:51:14.642Z,7.97
2022-09-28T06:51:46.188Z,6.67
2022-09-28T06:52:17.678Z,5.28
2022-09-28T06:52:54.013Z,6.45
2022-09-28T06:53:27.180Z,8.27
2022-09-28T06:53:58.703Z,4.90
2022-09-28T06:54:30.226Z,5.82
2022-09-28T06:55:01.759Z,5.53
2022-09-28T06:55:33.330Z,4.65
2022-09-28T06:56:06.944Z,4.00
2022-09-28T06:56:38.435Z,6.72
2022-09-28T06:57:09.973Z,5.30
2022-09-28T06:57:41.511Z,4.38
2022-09-28T06:58:15.064Z,5.00
2022-09-28T06:58:47.289Z,7.22
2022-09-28T06:59:18.887Z,5.05
2022-09-28T06:59:50.417Z,5.75
2022-09-28T07:00:21.923Z,5.57
2022-09-28T07:00:59.325Z,6.45
2022-09-28T07:01:31.029Z,7.35
2022-09-28T07:02:02.773Z,5.47
2022-09-28T07:02:34.511Z,5.70
2022-09-28T07:03:09.166Z,5.45
2022-09-28T07:03:40.727Z,7.00
2022-09-28T07:04:12.244Z,7.68
2022-09-28T07:04:43.747Z,6.88
2022-09-28T07:05:15.273Z,5.97
2022-09-28T07:05:49.791Z,5.07
2022-09-28T07:06:24.076Z,6.35
2022-09-28T07:06:55.605Z,5.00
2022-09-28T07:07:27.115Z,4.70
2022-09-28T07:07:58.731Z,5.50
2022-09-28T07:08:30.263Z,5.35
2022-09-28T07:09:26.462Z,4.80
2022-09-28T07:09:57.843Z,5.22
2022-09-28T07:10:31.023Z,5.47
2022-09-28T07:11:06.333Z,4.30
2022-09-28T07:11:39.650Z,5.03
2022-09-28T07:12:13.209Z,7.95
2022-09-28T07:12:44.698Z,5.93
2022-09-28T07:13:45.686Z,4.15
2022-09-28T07:14:18.383Z,4.23
2022-09-28T07:14:58.391Z,4.65
2022-09-28T07:15:30.901Z,4.45
2022-09-28T07:16:02.430Z,4.40
2022-09-28T07:16:59.570Z,4.93
2022-09-28T07:17:25.529Z,4.13
2022-09-28T07:18:03.797Z,4.68
2022-09-28T07:18:35.702Z,6.50
2022-09-28T07:19:07.319Z,4.68
2022-09-28T07:19:38.818Z,6.47
2022-09-28T07:20:18.400Z,6.87
2022-09-28T07:20:54.446Z,8.02
2022-09-28T07:21:30.197Z,9.95
2022-09-28T07:22:05.402Z,4.55
2022-09-28T07:22:42.868Z,6.95
2022-09-28T07:23:19.470Z,5.25
2022-09-28T07:23:54.270Z,4.57
2022-09-28T07:24:26.012Z,4.90
2022-09-28T07:24:58.398Z,4.10
2022-09-28T07:25:31.518Z,4.35
2022-09-28T07:26:07.792Z,4.97
2022-09-28T07:26:40.511Z,6.40
2022-09-28T07:27:12.035Z,4.40
2022-09-28T07:27:43.574Z,5.65
2022-09-28T07:28:16.423Z,3.85
2022-09-28T07:28:47.928Z,4.63
2022-09-28T07:29:19.432Z,6.47
2022-09-28T07:29:52.972Z,4.85
2022-09-28T07:30:26.647Z,4.75
2022-09-28T07:30:58.337Z,5.25
2022-09-28T07:31:29.964Z,5.33
2022-09-28T07:32:01.738Z,4.40
2022-09-28T07:32:37.137Z,4.20
2022-09-28T07:33:10.858Z,4.28
2022-09-28T07:33:42.442Z,4.18
2022-09-28T07:34:13.989Z,4.90
2022-09-28T07:34:45.604Z,4.57
2022-09-28T07:35:17.254Z,4.80
2022-09-28T07:35:55.662Z,5.47
2022-09-28T07:36:27.232Z,4.03
2022-09-28T07:36:59.642Z,3.90
2022-09-28T07:37:31.256Z,3.80
2022-09-28T07:38:07.166Z,4.05
2022-09-28T07:38:38.691Z,3.75
2022-09-28T07:39:11.636Z,3.80
2022-09-28T07:40:01.734Z,5.00
2022-09-28T07:40:54.283Z,5.50
2022-09-28T07:41:32.584Z,4.20
2022-09-28T07:42:04.140Z,5.22
2022-09-28T07:42:36.261Z,4.00
2022-09-28T07:43:08.390Z,4.03
2022-09-28T07:43:41.028Z,4.57
2022-09-28T07:44:12.517Z,3.58
2022-09-28T07:44:44.017Z,6.38
2022-09-28T07:45:15.618Z,5.13
2022-09-28T07:45:56.349Z,6.93